Chemroad Wing — 3EAB8 — position and weather

sailwx.info

Track history (hours):
 
Tides and Currents Weather Stations Pressure Air Temp Water Temp Dewpoint Dewpoint Depression Visibility Wind Speed Wind Dir Waves Ship Positions

Chemroad Wing

Last reported at 2015-May-01 14:17 UTC. Time now 2015-May-04 12:03 UTC.
Position N 39°14' W 009°57'.

Length 170 m; draft 10.7 m.

Type: Ship (hazmat cat B). MMSI: 357740000.

Date/timePositionNaut miles runAvg speedWind from/ knotsBaromVisibWave heightAir tempDewpointWater temp
2015-May-01 14:17N 39°14' W 009°57'912.6
2015-May-01 13:33N 39°05' W 009°57'1312.6
2015-May-01 12:33N 38°52' W 009°56'1212.6
2015-May-01 11:33N 38°40' W 009°56'1312.6
2015-May-01 10:33N 38°28' W 009°52'1312.6
2015-May-01 09:33N 38°15' W 009°49'1312.8
2015-May-01 08:33N 38°03' W 009°46'1312.8
2015-May-01 07:33N 37°50' W 009°42'1312.7
2015-May-01 06:33N 37°38' W 009°38'1412.9
2015-May-01 05:31N 37°25' W 009°34'1313.1
2015-May-01 04:32N 37°12' W 009°30'1313.3
2015-May-01 03:33N 36°60' W 009°27'1313.0
2015-May-01 02:33N 36°48' W 009°21'1413.3
2015-May-01 01:29N 36°39' W 009°07'1313.5
2015-May-01 00:33N 36°35' W 008°52'1313.2
2015-Apr-30 23:33N 36°31' W 008°36'1313.2
2015-Apr-30 22:33N 36°26' W 008°21'1313.2
2015-Apr-30 21:33N 36°22' W 008°05'1413.2
2015-Apr-30 20:30N 36°17' W 007°49'1312.9
2015-Apr-30 19:31N 36°14' W 007°34'9811.8
2015-Apr-30 11:12N 35°57' W 005°34'711.0
2015-Apr-30 10:31N 35°60' W 005°25'6 6.6
2015-Apr-30 09:33N 36°06' W 005°25'0 0.1
2015-Apr-30 08:29N 36°06' W 005°25'0 0.0
2015-Apr-30 04:15N 36°06' W 005°25'5 6.7
2015-Apr-30 03:34N 36°03' W 005°20'12211.8
2015-Apr-29 17:13N 36°21' W 002°50'912.3
2015-Apr-29 16:31N 36°22' W 002°39'1212.4
2015-Apr-29 15:30N 36°24' W 002°24'1812.6
2015-Apr-29 14:03N 36°30' W 002°02'612.7
2015-Apr-29 13:33N 36°33' W 001°55'1412.6
2015-Apr-29 12:27N 36°41' W 001°41'1313.1
2015-Apr-29 11:30N 36°49' W 001°29'1313.0
2015-Apr-29 10:31N 36°56' W 001°16'1812.8
2015-Apr-29 09:09N 37°07' W 000°58'912.8
2015-Apr-29 08:28N 37°12' W 000°49'1212.5
2015-Apr-29 07:29N 37°19' W 000°37'1212.6
2015-Apr-29 06:31N 37°26' W 000°25'1212.8
2015-Apr-29 05:33N 37°34' W 000°13'1513.4
2015-Apr-29 04:27N 37°47' W 000°03'1213.0
2015-Apr-29 03:33N 37°57' E 000°04'1313.1
2015-Apr-29 02:33N 38°08' E 000°13'1313.2
2015-Apr-29 01:33N 38°20' E 000°21'1612.9
2015-Apr-29 00:20N 38°33' E 000°32'1613.0
2015-Apr-28 23:06N 38°47' E 000°41'1213.0
2015-Apr-28 22:13N 38°59' E 000°44'913.5
2015-Apr-28 21:32N 39°08' E 000°47'4013.3
2015-Apr-28 18:33N 39°47' E 000°53'1312.9
2015-Apr-28 17:33N 39°59' E 000°57'1313.0
2015-Apr-28 16:33N 40°12' E 000°60'1312.6
2015-Apr-28 15:33N 40°24' E 001°03'1312.8
2015-Apr-28 14:33N 40°37' E 001°06'1913.3
2015-Apr-28 13:06N 40°56' E 001°11'912.6
2015-Apr-28 12:24N 41°05' E 001°13'11 0.3
2015-Apr-27 03:29N 41°01' E 001°26'6 6.7
2015-Apr-27 02:33N 41°00' E 001°34'1010.3
2015-Apr-27 01:33N 41°00' E 001°48'1312.6
2015-Apr-27 00:33N 41°02' E 002°05'1313.1
2015-Apr-26 23:33N 41°08' E 002°20'1613.8
2015-Apr-26 22:23N 41°16' E 002°39'1513.2
2015-Apr-26 21:13N 41°22' E 002°57'1113.7
2015-Apr-26 20:24N 41°27' E 003°11'1213.3
2015-Apr-26 19:31N 41°32' E 003°25'1313.1
2015-Apr-26 18:30N 41°41' E 003°38'1312.7
2015-Apr-26 17:29N 41°52' E 003°48'1212.8
2015-Apr-26 16:33N 42°01' E 003°58'1212.4
2015-Apr-26 15:33N 42°11' E 004°09'1713.2
2015-Apr-26 14:13N 42°09' E 004°32'811.9
2015-Apr-26 13:33N 42°10' E 004°43'1413.4
2015-Apr-26 12:29N 42°19' E 004°58'1212.3
2015-Apr-26 11:31N 42°26' E 005°11'1515.2
2015-Apr-26 10:33N 42°28' E 005°31'1111.2
2015-Apr-26 09:33N 42°29' E 005°46'3012.2
2015-Apr-26 07:04N 42°44' E 006°22'3913.5
2015-Apr-26 04:09N 43°02' E 007°10'913.3
2015-Apr-26 03:29N 43°07' E 007°20'1313.4
2015-Apr-26 02:33N 43°16' E 007°32'1313.5
2015-Apr-26 01:33N 43°26' E 007°45'1413.8
2015-Apr-26 00:33N 43°36' E 007°58'1413.8
2015-Apr-25 23:33N 43°46' E 008°11'1413.8
2015-Apr-25 22:33N 43°55' E 008°24'1413.9
2015-Apr-25 21:33N 44°06' E 008°36'1414.0
2015-Apr-25 20:34N 44°19' E 008°44'7 6.9
2015-Apr-25 19:29N 44°25' E 008°50'0 0.0
2015-Apr-25 18:29N 44°25' E 008°50'0 0.0
2015-Apr-25 17:29N 44°25' E 008°50'0 0.0
2015-Apr-25 16:23N 44°25' E 008°50'0 0.0
2015-Apr-25 15:29N 44°25' E 008°50'0 0.0
2015-Apr-25 14:23N 44°25' E 008°50'0 0.0
2015-Apr-25 13:17N 44°25' E 008°50'0 0.0
2015-Apr-25 12:29N 44°25' E 008°50'0 0.0
2015-Apr-25 11:17N 44°25' E 008°50'0 0.0
2015-Apr-25 10:29N 44°25' E 008°50'0 0.0
2015-Apr-25 09:17N 44°25' E 008°50'0 0.0
2015-Apr-25 08:33N 44°25' E 008°50'0 0.0
2015-Apr-25 07:33N 44°25' E 008°50'1 1.5
2015-Apr-25 06:33N 44°24' E 008°48'5 5.2
2015-Apr-25 05:33N 44°19' E 008°50'1111.3
2015-Apr-25 04:33N 44°14' E 009°03'7 6.7
2015-Apr-25 03:33N 44°07' E 009°07'7 7.4
2015-Apr-25 02:33N 44°01' E 009°11'1312.6
2015-Apr-25 01:33N 43°49' E 009°18'1313.2
2015-Apr-25 00:33N 43°37' E 009°26'1313.4
2015-Apr-24 23:33N 43°24' E 009°32'1313.4
2015-Apr-24 22:33N 43°11' E 009°36'1413.3
2015-Apr-24 21:29N 42°58' E 009°41'1213.3
2015-Apr-24 20:33N 42°45' E 009°45'1313.3
2015-Apr-24 19:33N 42°32' E 009°49'18012.8
2015-Apr-24 05:32N 39°34' E 010°15'1312.9
2015-Apr-24 04:33N 39°21' E 010°15'18612.9
2015-Apr-23 14:09N 36°49' E 012°32'1113.5
2015-Apr-23 13:20N 36°45' E 012°45'1113.6
2015-Apr-23 12:33N 36°41' E 012°57'1413.8
2015-Apr-23 11:33N 36°35' E 013°13'1414.0
2015-Apr-23 10:33N 36°30' E 013°29'1413.7
2015-Apr-23 09:33N 36°25' E 013°45'1413.8
2015-Apr-23 08:33N 36°19' E 014°00'1413.6
2015-Apr-23 07:33N 36°14' E 014°16'1413.6
2015-Apr-23 06:33N 36°09' E 014°31'1413.6
2015-Apr-23 05:34N 36°03' E 014°47'1312.8
2015-Apr-23 04:34N 35°58' E 015°01'1312.8
2015-Apr-23 03:32N 35°54' E 015°16'1313.2
2015-Apr-23 02:33N 35°49' E 015°31'1313.1
2015-Apr-23 01:33N 35°45' E 015°47'1313.2
2015-Apr-23 00:33N 35°42' E 016°03'1313.2
2015-Apr-22 23:33N 35°38' E 016°18'1313.1
2015-Apr-22 22:33N 35°35' E 016°34'1613.1
2015-Apr-22 21:21N 35°31' E 016°53'1013.2
2015-Apr-22 20:34N 35°28' E 017°05'  
Track history (hours):
 
Tides and Currents Weather Stations Pressure Air Temp Water Temp Dewpoint Dewpoint Depression Visibility Wind Speed Wind Dir Waves Ship Positions

Chemroad Wing

Last reported at 2015-May-01 14:17 UTC. Time now 2015-May-04 12:03 UTC.
Position N 39°14' W 009°57'.

Length 170 m; draft 10.7 m.

Type: Ship (hazmat cat B). MMSI: 357740000.

Date/timePositionNaut miles runAvg speedWind from/ knotsBaromVisibWave heightAir tempDewpointWater temp
2015-May-01 14:17N 39°14' W 009°57'912.6
2015-May-01 13:33N 39°05' W 009°57'1312.6
2015-May-01 12:33N 38°52' W 009°56'1212.6
2015-May-01 11:33N 38°40' W 009°56'1312.6
2015-May-01 10:33N 38°28' W 009°52'1312.6
2015-May-01 09:33N 38°15' W 009°49'1312.8
2015-May-01 08:33N 38°03' W 009°46'1312.8
2015-May-01 07:33N 37°50' W 009°42'1312.7
2015-May-01 06:33N 37°38' W 009°38'1412.9
2015-May-01 05:31N 37°25' W 009°34'1313.1
2015-May-01 04:32N 37°12' W 009°30'1313.3
2015-May-01 03:33N 36°60' W 009°27'1313.0
2015-May-01 02:33N 36°48' W 009°21'1413.3
2015-May-01 01:29N 36°39' W 009°07'1313.5
2015-May-01 00:33N 36°35' W 008°52'1313.2
2015-Apr-30 23:33N 36°31' W 008°36'1313.2
2015-Apr-30 22:33N 36°26' W 008°21'1313.2
2015-Apr-30 21:33N 36°22' W 008°05'1413.2
2015-Apr-30 20:30N 36°17' W 007°49'1312.9
2015-Apr-30 19:31N 36°14' W 007°34'9811.8
2015-Apr-30 11:12N 35°57' W 005°34'711.0
2015-Apr-30 10:31N 35°60' W 005°25'6 6.6
2015-Apr-30 09:33N 36°06' W 005°25'0 0.1
2015-Apr-30 08:29N 36°06' W 005°25'0 0.0
2015-Apr-30 04:15N 36°06' W 005°25'5 6.7
2015-Apr-30 03:34N 36°03' W 005°20'12211.8
2015-Apr-29 17:13N 36°21' W 002°50'912.3
2015-Apr-29 16:31N 36°22' W 002°39'1212.4
2015-Apr-29 15:30N 36°24' W 002°24'1812.6
2015-Apr-29 14:03N 36°30' W 002°02'612.7
2015-Apr-29 13:33N 36°33' W 001°55'1412.6
2015-Apr-29 12:27N 36°41' W 001°41'1313.1
2015-Apr-29 11:30N 36°49' W 001°29'1313.0
2015-Apr-29 10:31N 36°56' W 001°16'1812.8
2015-Apr-29 09:09N 37°07' W 000°58'912.8
2015-Apr-29 08:28N 37°12' W 000°49'1212.5
2015-Apr-29 07:29N 37°19' W 000°37'1212.6
2015-Apr-29 06:31N 37°26' W 000°25'1212.8
2015-Apr-29 05:33N 37°34' W 000°13'1513.4
2015-Apr-29 04:27N 37°47' W 000°03'1213.0
2015-Apr-29 03:33N 37°57' E 000°04'1313.1
2015-Apr-29 02:33N 38°08' E 000°13'1313.2
2015-Apr-29 01:33N 38°20' E 000°21'1612.9
2015-Apr-29 00:20N 38°33' E 000°32'1613.0
2015-Apr-28 23:06N 38°47' E 000°41'1213.0
2015-Apr-28 22:13N 38°59' E 000°44'913.5
2015-Apr-28 21:32N 39°08' E 000°47'4013.3
2015-Apr-28 18:33N 39°47' E 000°53'1312.9
2015-Apr-28 17:33N 39°59' E 000°57'1313.0
2015-Apr-28 16:33N 40°12' E 000°60'1312.6
2015-Apr-28 15:33N 40°24' E 001°03'1312.8
2015-Apr-28 14:33N 40°37' E 001°06'1913.3
2015-Apr-28 13:06N 40°56' E 001°11'912.6
2015-Apr-28 12:24N 41°05' E 001°13'11 0.3
2015-Apr-27 03:29N 41°01' E 001°26'6 6.7
2015-Apr-27 02:33N 41°00' E 001°34'1010.3
2015-Apr-27 01:33N 41°00' E 001°48'1312.6
2015-Apr-27 00:33N 41°02' E 002°05'1313.1
2015-Apr-26 23:33N 41°08' E 002°20'1613.8
2015-Apr-26 22:23N 41°16' E 002°39'1513.2
2015-Apr-26 21:13N 41°22' E 002°57'1113.7
2015-Apr-26 20:24N 41°27' E 003°11'1213.3
2015-Apr-26 19:31N 41°32' E 003°25'1313.1
2015-Apr-26 18:30N 41°41' E 003°38'1312.7
2015-Apr-26 17:29N 41°52' E 003°48'1212.8
2015-Apr-26 16:33N 42°01' E 003°58'1212.4
2015-Apr-26 15:33N 42°11' E 004°09'1713.2
2015-Apr-26 14:13N 42°09' E 004°32'811.9
2015-Apr-26 13:33N 42°10' E 004°43'1413.4
2015-Apr-26 12:29N 42°19' E 004°58'1212.3
2015-Apr-26 11:31N 42°26' E 005°11'1515.2
2015-Apr-26 10:33N 42°28' E 005°31'1111.2
2015-Apr-26 09:33N 42°29' E 005°46'3012.2
2015-Apr-26 07:04N 42°44' E 006°22'3913.5
2015-Apr-26 04:09N 43°02' E 007°10'913.3
2015-Apr-26 03:29N 43°07' E 007°20'1313.4
2015-Apr-26 02:33N 43°16' E 007°32'1313.5
2015-Apr-26 01:33N 43°26' E 007°45'1413.8
2015-Apr-26 00:33N 43°36' E 007°58'1413.8
2015-Apr-25 23:33N 43°46' E 008°11'1413.8
2015-Apr-25 22:33N 43°55' E 008°24'1413.9
2015-Apr-25 21:33N 44°06' E 008°36'1414.0
2015-Apr-25 20:34N 44°19' E 008°44'7 6.9
2015-Apr-25 19:29N 44°25' E 008°50'0 0.0
2015-Apr-25 18:29N 44°25' E 008°50'0 0.0
2015-Apr-25 17:29N 44°25' E 008°50'0 0.0
2015-Apr-25 16:23N 44°25' E 008°50'0 0.0
2015-Apr-25 15:29N 44°25' E 008°50'0 0.0
2015-Apr-25 14:23N 44°25' E 008°50'0 0.0
2015-Apr-25 13:17N 44°25' E 008°50'0 0.0
2015-Apr-25 12:29N 44°25' E 008°50'0 0.0
2015-Apr-25 11:17N 44°25' E 008°50'0 0.0
2015-Apr-25 10:29N 44°25' E 008°50'0 0.0
2015-Apr-25 09:17N 44°25' E 008°50'0 0.0
2015-Apr-25 08:33N 44°25' E 008°50'0 0.0
2015-Apr-25 07:33N 44°25' E 008°50'1 1.5
2015-Apr-25 06:33N 44°24' E 008°48'5 5.2
2015-Apr-25 05:33N 44°19' E 008°50'1111.3
2015-Apr-25 04:33N 44°14' E 009°03'7 6.7
2015-Apr-25 03:33N 44°07' E 009°07'7 7.4
2015-Apr-25 02:33N 44°01' E 009°11'1312.6
2015-Apr-25 01:33N 43°49' E 009°18'1313.2
2015-Apr-25 00:33N 43°37' E 009°26'1313.4
2015-Apr-24 23:33N 43°24' E 009°32'1313.4
2015-Apr-24 22:33N 43°11' E 009°36'1413.3
2015-Apr-24 21:29N 42°58' E 009°41'1213.3
2015-Apr-24 20:33N 42°45' E 009°45'1313.3
2015-Apr-24 19:33N 42°32' E 009°49'18012.8
2015-Apr-24 05:32N 39°34' E 010°15'1312.9
2015-Apr-24 04:33N 39°21' E 010°15'18612.9
2015-Apr-23 14:09N 36°49' E 012°32'1113.5
2015-Apr-23 13:20N 36°45' E 012°45'1113.6
2015-Apr-23 12:33N 36°41' E 012°57'1413.8
2015-Apr-23 11:33N 36°35' E 013°13'1414.0
2015-Apr-23 10:33N 36°30' E 013°29'1413.7
2015-Apr-23 09:33N 36°25' E 013°45'1413.8
2015-Apr-23 08:33N 36°19' E 014°00'1413.6
2015-Apr-23 07:33N 36°14' E 014°16'1413.6
2015-Apr-23 06:33N 36°09' E 014°31'1413.6
2015-Apr-23 05:34N 36°03' E 014°47'1312.8
2015-Apr-23 04:34N 35°58' E 015°01'1312.8
2015-Apr-23 03:32N 35°54' E 015°16'1313.2
2015-Apr-23 02:33N 35°49' E 015°31'1313.1
2015-Apr-23 01:33N 35°45' E 015°47'1313.2
2015-Apr-23 00:33N 35°42' E 016°03'1313.2
2015-Apr-22 23:33N 35°38' E 016°18'1313.1
2015-Apr-22 22:33N 35°35' E 016°34'1613.1
2015-Apr-22 21:21N 35°31' E 016°53'1013.2
2015-Apr-22 20:34N 35°28' E 017°05'  

Dump ship's entire track history